createdAt,value
2017-01-24T00:00:16.875Z,21.99
2017-01-24T00:00:45.732Z,21.94
2017-01-24T00:01:13.619Z,21.94
2017-01-24T00:01:42.357Z,21.98
2017-01-24T00:02:10.151Z,21.91
2017-01-24T00:02:38.892Z,21.99
2017-01-24T00:03:07.835Z,21.88
2017-01-24T00:03:35.725Z,21.92
2017-01-24T00:04:04.550Z,22
2017-01-24T00:04:32.587Z,21.94
2017-01-24T00:05:02.210Z,21.86
2017-01-24T00:05:30.297Z,21.98
2017-01-24T00:05:59.078Z,21.91
2017-01-24T00:07:05.319Z,21.94
2017-01-24T00:07:33.302Z,21.94
2017-01-24T00:08:01.285Z,21.94
2017-01-24T00:08:29.241Z,21.99
2017-01-24T00:08:57.157Z,21.98
2017-01-24T00:09:25.073Z,21.92
2017-01-24T00:09:53.144Z,21.98
2017-01-24T00:10:21.911Z,21.94
2017-01-24T00:10:49.911Z,21.98
2017-01-24T00:11:18.599Z,21.92
2017-01-24T00:11:46.732Z,21.94
2017-01-24T00:12:15.516Z,21.96
2017-01-24T00:12:44.228Z,21.84
2017-01-24T00:13:14.020Z,21.94
2017-01-24T00:13:42.865Z,21.96
2017-01-24T00:14:12.486Z,21.99
2017-01-24T00:14:40.478Z,21.96
2017-01-24T00:15:10.101Z,21.9
2017-01-24T00:15:38.006Z,21.91
2017-01-24T00:16:06.920Z,21.96
2017-01-24T00:16:35.811Z,21.96
2017-01-24T00:17:04.658Z,21.98
2017-01-24T00:17:32.810Z,21.88
2017-01-24T00:18:01.488Z,21.92
2017-01-24T00:18:31.087Z,22
2017-01-24T00:18:59.974Z,21.96
2017-01-24T00:19:29.540Z,21.98
2017-01-24T00:19:58.417Z,21.91
2017-01-24T00:20:26.511Z,21.9
2017-01-24T00:20:55.393Z,21.96
2017-01-24T00:21:24.142Z,21.91
2017-01-24T00:21:52.130Z,21.96
2017-01-24T00:22:21.680Z,21.99
2017-01-24T00:22:49.723Z,21.94
2017-01-24T00:23:17.781Z,21.99
2017-01-24T00:23:45.845Z,21.96
2017-01-24T00:24:13.925Z,21.99
2017-01-24T00:24:41.984Z,21.92
2017-01-24T00:25:09.927Z,21.92
2017-01-24T00:25:37.915Z,21.94
2017-01-24T00:26:05.819Z,21.98
2017-01-24T00:26:33.859Z,21.92
2017-01-24T00:27:01.866Z,22.02
2017-01-24T00:27:29.852Z,21.99
2017-01-24T00:27:57.839Z,21.99
2017-01-24T00:28:27.533Z,21.96
2017-01-24T00:28:55.580Z,21.92
2017-01-24T00:29:24.317Z,21.91
2017-01-24T00:29:52.271Z,21.92
2017-01-24T00:30:21.903Z,21.94
2017-01-24T00:30:49.953Z,21.84
2017-01-24T00:31:18.063Z,21.98
2017-01-24T00:31:46.969Z,21.92
2017-01-24T00:32:15.040Z,21.91
2017-01-24T00:32:43.129Z,21.96
2017-01-24T00:33:12.773Z,21.98
2017-01-24T00:33:41.641Z,21.83
2017-01-24T00:34:10.536Z,21.86
2017-01-24T00:34:38.374Z,21.91
2017-01-24T00:35:07.153Z,21.86
2017-01-24T00:35:35.032Z,21.88
2017-01-24T00:36:03.099Z,21.86
2017-01-24T00:36:31.186Z,21.91
2017-01-24T00:36:59.229Z,21.9
2017-01-24T00:37:27.326Z,21.82
2017-01-24T00:37:55.404Z,21.91
2017-01-24T00:38:25.843Z,21.84
2017-01-24T00:38:53.967Z,21.74
2017-01-24T00:39:22.818Z,21.84
2017-01-24T00:39:50.914Z,21.84
2017-01-24T00:40:19.026Z,21.8
2017-01-24T00:40:47.767Z,21.84
2017-01-24T00:41:15.815Z,21.75
2017-01-24T00:41:44.669Z,21.84
2017-01-24T00:42:12.721Z,21.9
2017-01-24T00:42:40.693Z,21.83
2017-01-24T00:43:08.671Z,21.84
2017-01-24T00:43:37.646Z,21.82
2017-01-24T00:44:06.546Z,21.77
2017-01-24T00:44:35.308Z,21.79
2017-01-24T00:45:04.957Z,21.83
2017-01-24T00:45:33.041Z,21.75
2017-01-24T00:46:39.279Z,21.8
2017-01-24T00:47:08.834Z,21.75
2017-01-24T00:47:36.906Z,21.72
2017-01-24T00:48:07.205Z,21.82
2017-01-24T00:48:35.306Z,21.83
2017-01-24T00:49:04.167Z,21.8
2017-01-24T00:49:32.838Z,21.83
2017-01-24T00:50:00.921Z,21.82
2017-01-24T00:50:29.798Z,21.83
2017-01-24T00:50:58.663Z,21.83
2017-01-24T00:51:26.798Z,21.82
2017-01-24T00:51:55.678Z,21.72
2017-01-24T00:52:23.666Z,21.79
2017-01-24T00:52:51.659Z,21.72
2017-01-24T00:53:19.727Z,21.77
2017-01-24T00:53:48.477Z,21.74
2017-01-24T00:54:16.565Z,21.79
2017-01-24T00:54:46.202Z,21.74
2017-01-24T00:55:14.197Z,21.75
2017-01-24T00:55:42.327Z,21.83
2017-01-24T00:56:10.363Z,21.68
2017-01-24T00:56:38.428Z,21.75
2017-01-24T00:57:06.424Z,21.82
2017-01-24T00:57:34.495Z,21.71
2017-01-24T00:58:03.419Z,21.82
2017-01-24T00:58:32.217Z,21.74
2017-01-24T00:59:00.320Z,21.68
2017-01-24T00:59:29.184Z,21.67
2017-01-24T00:59:57.283Z,21.74
2017-01-24T01:00:26.045Z,21.64
2017-01-24T01:00:54.802Z,21.64
2017-01-24T01:01:22.704Z,21.71
2017-01-24T01:01:50.587Z,21.68
2017-01-24T01:02:19.412Z,21.72
2017-01-24T01:02:47.384Z,21.65
2017-01-24T01:03:15.365Z,21.74
2017-01-24T01:03:44.415Z,21.74
2017-01-24T01:04:12.476Z,21.65
2017-01-24T01:04:40.432Z,21.71
2017-01-24T01:05:08.329Z,21.68
2017-01-24T01:05:36.410Z,21.74
2017-01-24T01:06:06.093Z,21.65
2017-01-24T01:06:34.075Z,21.65
2017-01-24T01:07:02.140Z,21.67
2017-01-24T01:07:30.221Z,21.68
2017-01-24T01:07:58.201Z,21.68
2017-01-24T01:08:26.159Z,21.71
2017-01-24T01:08:54.289Z,21.71
2017-01-24T01:09:24.679Z,21.69
2017-01-24T01:09:53.423Z,21.68
2017-01-24T01:10:21.385Z,21.65
2017-01-24T01:10:50.195Z,21.69
2017-01-24T01:11:18.230Z,21.64
2017-01-24T01:11:46.306Z,21.67
2017-01-24T01:12:14.395Z,21.67
2017-01-24T01:12:42.391Z,21.68
2017-01-24T01:13:10.389Z,21.71
2017-01-24T01:13:38.590Z,21.58
2017-01-24T01:14:07.368Z,21.68
2017-01-24T01:14:36.162Z,21.67
2017-01-24T01:15:04.817Z,21.64
2017-01-24T01:15:33.581Z,21.65
2017-01-24T01:16:02.352Z,21.67
2017-01-24T01:16:30.303Z,21.62
2017-01-24T01:16:58.211Z,21.65
2017-01-24T01:17:27.074Z,21.56
2017-01-24T01:17:55.096Z,21.58
2017-01-24T01:18:23.220Z,21.64
2017-01-24T01:18:51.209Z,21.65
2017-01-24T01:19:19.214Z,21.58
2017-01-24T01:19:47.991Z,21.56
2017-01-24T01:20:16.752Z,21.59
2017-01-24T01:20:45.590Z,21.58
2017-01-24T01:21:14.357Z,21.56
2017-01-24T01:21:43.095Z,21.61
2017-01-24T01:22:11.946Z,21.52
2017-01-24T01:22:40.008Z,21.46
2017-01-24T01:23:07.952Z,21.47
2017-01-24T01:23:36.076Z,21.52
2017-01-24T01:24:04.854Z,21.52
2017-01-24T01:24:32.853Z,21.49
2017-01-24T01:25:01.714Z,21.47
2017-01-24T01:26:08.826Z,21.42
2017-01-24T01:26:37.686Z,21.42
2017-01-24T01:27:06.543Z,21.44
2017-01-24T01:27:34.499Z,21.46
2017-01-24T01:28:02.598Z,21.4
2017-01-24T01:28:30.741Z,21.38
2017-01-24T01:29:00.400Z,21.35
2017-01-24T01:29:28.181Z,21.43
2017-01-24T01:29:56.269Z,21.35
2017-01-24T01:30:24.093Z,21.34
2017-01-24T01:30:52.992Z,21.31
2017-01-24T01:31:21.885Z,21.31
2017-01-24T01:31:49.969Z,21.4
2017-01-24T01:32:18.056Z,21.4
2017-01-24T01:32:47.694Z,21.4
2017-01-24T01:33:16.439Z,21.34
2017-01-24T01:33:44.629Z,21.4
2017-01-24T01:34:13.516Z,21.4
2017-01-24T01:34:41.507Z,21.43
2017-01-24T01:35:10.228Z,21.44
2017-01-24T01:35:39.880Z,21.37
2017-01-24T01:36:07.768Z,21.4
2017-01-24T01:36:35.766Z,21.31
2017-01-24T01:37:04.622Z,21.32
2017-01-24T01:37:32.671Z,21.29
2017-01-24T01:38:00.677Z,21.34
2017-01-24T01:38:28.781Z,21.37
2017-01-24T01:38:57.465Z,21.38
2017-01-24T01:39:25.472Z,21.37
2017-01-24T01:39:55.015Z,21.38
2017-01-24T01:40:23.884Z,21.29
2017-01-24T01:40:51.968Z,21.32
2017-01-24T01:41:21.537Z,21.34
2017-01-24T01:41:49.572Z,21.35
2017-01-24T01:42:17.633Z,21.31
2017-01-24T01:42:45.519Z,21.37
2017-01-24T01:43:13.499Z,21.35
2017-01-24T01:43:42.343Z,21.44
2017-01-24T01:44:10.995Z,21.31
2017-01-24T01:44:38.985Z,21.38
2017-01-24T01:45:07.748Z,21.5
2017-01-24T01:45:35.793Z,21.47
2017-01-24T01:46:03.729Z,21.44
2017-01-24T01:46:31.795Z,21.38
2017-01-24T01:47:00.469Z,21.38
2017-01-24T01:47:28.271Z,21.43
2017-01-24T01:47:56.137Z,21.52
2017-01-24T01:48:26.590Z,21.38
2017-01-24T01:48:54.634Z,21.37
2017-01-24T01:49:23.288Z,21.5
2017-01-24T01:49:52.037Z,21.37
2017-01-24T01:50:20.147Z,21.4
2017-01-24T01:50:49.047Z,21.38
2017-01-24T01:51:16.933Z,21.4
2017-01-24T01:51:44.931Z,21.43
2017-01-24T01:52:14.490Z,21.38
2017-01-24T01:52:43.268Z,21.38
2017-01-24T01:53:11.298Z,21.43
2017-01-24T01:53:39.415Z,21.42
2017-01-24T01:54:07.508Z,21.38
2017-01-24T01:54:35.574Z,21.4
2017-01-24T01:55:03.551Z,21.46
2017-01-24T01:55:31.544Z,21.42
2017-01-24T01:56:00.197Z,21.47
2017-01-24T01:56:28.199Z,21.44
2017-01-24T01:56:56.277Z,21.44
2017-01-24T01:57:24.395Z,21.47
2017-01-24T01:57:52.524Z,21.46
2017-01-24T01:58:20.587Z,21.46
2017-01-24T01:58:48.779Z,21.43
2017-01-24T01:59:18.420Z,21.4
2017-01-24T01:59:46.211Z,21.42
2017-01-24T02:00:14.164Z,21.47
2017-01-24T02:00:43.016Z,21.4
2017-01-24T02:01:10.994Z,21.43
2017-01-24T02:01:38.970Z,21.42
2017-01-24T02:02:07.044Z,21.43
2017-01-24T02:02:35.872Z,21.4
2017-01-24T02:03:04.003Z,21.46
2017-01-24T02:03:32.072Z,21.38
2017-01-24T02:04:01.725Z,21.38
2017-01-24T02:04:29.815Z,21.42
2017-01-24T02:05:36.926Z,21.4
2017-01-24T02:06:04.908Z,21.43
2017-01-24T02:06:32.797Z,21.4
2017-01-24T02:07:01.634Z,21.37
2017-01-24T02:07:30.426Z,21.43
2017-01-24T02:07:59.291Z,21.43
2017-01-24T02:08:28.812Z,21.31
2017-01-24T02:08:56.882Z,21.37
2017-01-24T02:09:26.534Z,21.43
2017-01-24T02:09:54.543Z,21.43
2017-01-24T02:10:22.583Z,21.46
2017-01-24T02:10:50.800Z,21.38
2017-01-24T02:11:18.792Z,21.37
2017-01-24T02:11:46.792Z,21.43
2017-01-24T02:12:16.325Z,21.34
2017-01-24T02:12:45.069Z,21.37
2017-01-24T02:13:13.161Z,21.38
2017-01-24T02:13:42.064Z,21.4
2017-01-24T02:14:09.974Z,21.29
2017-01-24T02:14:37.915Z,21.42
2017-01-24T02:15:07.572Z,21.31
2017-01-24T02:15:36.413Z,21.32
2017-01-24T02:16:04.225Z,21.35
2017-01-24T02:16:33.080Z,21.34
2017-01-24T02:17:01.220Z,21.31
2017-01-24T02:17:29.318Z,21.32
2017-01-24T02:17:58.199Z,21.4
2017-01-24T02:18:26.287Z,21.4
2017-01-24T02:18:54.379Z,21.31
2017-01-24T02:19:22.453Z,21.37
2017-01-24T02:19:50.350Z,21.4
2017-01-24T02:20:18.252Z,21.43
2017-01-24T02:20:47.009Z,21.32
2017-01-24T02:21:15.937Z,21.37
2017-01-24T02:21:44.779Z,21.35
2017-01-24T02:22:12.773Z,21.32
2017-01-24T02:22:40.756Z,21.29
2017-01-24T02:23:09.522Z,21.35
2017-01-24T02:23:37.484Z,21.38
2017-01-24T02:24:05.577Z,21.4
2017-01-24T02:24:34.337Z,21.4
2017-01-24T02:25:02.283Z,21.32
2017-01-24T02:25:31.051Z,21.31
2017-01-24T02:25:59.030Z,21.31
2017-01-24T02:26:27.799Z,21.31
2017-01-24T02:26:57.431Z,21.31
2017-01-24T02:27:26.270Z,21.35
2017-01-24T02:27:55.083Z,21.32
2017-01-24T02:28:24.694Z,21.43
2017-01-24T02:28:52.805Z,21.34
2017-01-24T02:29:20.861Z,21.38
2017-01-24T02:29:50.451Z,21.38
2017-01-24T02:30:18.573Z,21.32
2017-01-24T02:30:46.639Z,21.32
2017-01-24T02:31:15.405Z,21.38
2017-01-24T02:31:44.268Z,21.37
2017-01-24T02:32:12.349Z,21.42
2017-01-24T02:32:40.480Z,21.32
2017-01-24T02:33:09.370Z,21.32
2017-01-24T02:33:38.046Z,21.29
2017-01-24T02:34:06.108Z,21.31
2017-01-24T02:34:36.539Z,21.37
2017-01-24T02:35:05.235Z,21.31
2017-01-24T02:35:33.960Z,21.32
2017-01-24T02:36:01.867Z,21.37
2017-01-24T02:36:30.725Z,21.43
2017-01-24T02:36:58.846Z,21.32
2017-01-24T02:37:27.671Z,21.43
2017-01-24T02:37:55.640Z,21.37
2017-01-24T02:38:23.370Z,21.44
2017-01-24T02:38:52.925Z,21.44
2017-01-24T02:39:20.900Z,21.47
2017-01-24T02:39:48.846Z,21.47
2017-01-24T02:40:18.480Z,21.49
2017-01-24T02:40:46.446Z,21.5
2017-01-24T02:41:14.522Z,21.52
2017-01-24T02:41:44.050Z,21.49
2017-01-24T02:42:12.800Z,21.42
2017-01-24T02:42:40.934Z,21.42
2017-01-24T02:43:08.922Z,21.5
2017-01-24T02:43:37.783Z,21.52
2017-01-24T02:44:06.020Z,21.52
2017-01-24T02:45:12.352Z,21.53
2017-01-24T02:45:40.335Z,21.5
2017-01-24T02:46:08.409Z,21.49
2017-01-24T02:46:36.364Z,21.49
2017-01-24T02:47:04.463Z,21.42
2017-01-24T02:47:33.316Z,21.5
2017-01-24T02:48:01.293Z,21.54
2017-01-24T02:48:29.274Z,21.44
2017-01-24T02:48:57.366Z,21.54
2017-01-24T02:49:25.460Z,21.49
2017-01-24T02:49:55.157Z,21.49
2017-01-24T02:50:23.270Z,21.49
2017-01-24T02:50:52.122Z,21.53
2017-01-24T02:51:20.214Z,21.47
2017-01-24T02:51:48.966Z,21.5
2017-01-24T02:52:17.802Z,21.61
2017-01-24T02:52:45.799Z,21.53
2017-01-24T02:53:14.640Z,21.49
2017-01-24T02:53:42.736Z,21.47
2017-01-24T02:54:11.562Z,21.5
2017-01-24T02:54:39.662Z,21.58
2017-01-24T02:55:07.729Z,21.44
2017-01-24T02:55:37.292Z,21.47
2017-01-24T02:56:06.835Z,21.59
2017-01-24T02:56:35.571Z,21.5
2017-01-24T02:57:03.581Z,21.58
2017-01-24T02:57:32.298Z,21.47
2017-01-24T02:58:00.377Z,21.5
2017-01-24T02:58:28.475Z,21.46
2017-01-24T02:58:57.319Z,21.44
2017-01-24T02:59:26.180Z,21.47
2017-01-24T02:59:54.258Z,21.46
2017-01-24T03:00:23.797Z,21.5
2017-01-24T03:00:52.605Z,21.4
2017-01-24T03:01:22.225Z,21.49
2017-01-24T03:01:50.293Z,21.43
2017-01-24T03:02:18.958Z,21.43
2017-01-24T03:02:47.030Z,21.47
2017-01-24T03:03:15.055Z,21.52
2017-01-24T03:03:43.137Z,21.43
2017-01-24T03:04:12.087Z,21.43
2017-01-24T03:04:40.217Z,21.5
2017-01-24T03:05:09.069Z,21.53
2017-01-24T03:05:37.133Z,21.4
2017-01-24T03:06:05.885Z,21.44
2017-01-24T03:06:34.650Z,21.4
2017-01-24T03:07:02.613Z,21.47
2017-01-24T03:07:30.740Z,21.5
2017-01-24T03:07:58.788Z,21.52
2017-01-24T03:08:26.749Z,21.49
2017-01-24T03:08:54.711Z,21.47
2017-01-24T03:09:22.634Z,21.46
2017-01-24T03:09:51.345Z,21.46
2017-01-24T03:10:19.419Z,21.42
2017-01-24T03:10:48.284Z,21.43
2017-01-24T03:11:16.360Z,21.47
2017-01-24T03:11:44.351Z,21.43
2017-01-24T03:12:14.038Z,21.4
2017-01-24T03:12:42.928Z,21.37
2017-01-24T03:13:11.698Z,21.38
2017-01-24T03:13:39.668Z,21.4
2017-01-24T03:14:07.734Z,21.34
2017-01-24T03:14:35.785Z,21.35
2017-01-24T03:15:03.728Z,21.42
2017-01-24T03:15:31.637Z,21.4
2017-01-24T03:15:59.623Z,21.35
2017-01-24T03:16:28.527Z,21.37
2017-01-24T03:16:56.655Z,21.34
2017-01-24T03:17:25.499Z,21.37
2017-01-24T03:17:54.284Z,21.38
2017-01-24T03:18:22.402Z,21.31
2017-01-24T03:18:50.458Z,21.42
2017-01-24T03:19:18.316Z,21.32
2017-01-24T03:19:46.291Z,21.29
2017-01-24T03:20:15.907Z,21.34
2017-01-24T03:20:43.970Z,21.31
2017-01-24T03:21:12.033Z,21.34
2017-01-24T03:21:40.069Z,21.32
2017-01-24T03:22:08.193Z,21.34
2017-01-24T03:22:36.270Z,21.35
2017-01-24T03:23:05.913Z,21.38
2017-01-24T03:23:33.817Z,21.38
2017-01-24T03:24:40.147Z,21.49
2017-01-24T03:25:09.005Z,21.49
2017-01-24T03:25:37.864Z,21.5
2017-01-24T03:26:05.902Z,21.43
2017-01-24T03:26:33.917Z,21.47
2017-01-24T03:27:01.821Z,21.52
2017-01-24T03:27:30.492Z,21.5
2017-01-24T03:27:58.571Z,21.5
2017-01-24T03:28:26.476Z,21.54
2017-01-24T03:28:56.119Z,21.54
2017-01-24T03:29:24.250Z,21.49
2017-01-24T03:29:52.414Z,21.52
2017-01-24T03:30:21.189Z,21.52
2017-01-24T03:30:49.179Z,21.58
2017-01-24T03:31:18.030Z,21.53
2017-01-24T03:31:46.874Z,21.54
2017-01-24T03:32:14.962Z,21.53
2017-01-24T03:32:43.803Z,21.58
2017-01-24T03:33:11.799Z,21.58
2017-01-24T03:33:39.831Z,21.56
2017-01-24T03:34:09.385Z,21.54
2017-01-24T03:34:37.443Z,21.58
2017-01-24T03:35:05.526Z,21.56
2017-01-24T03:35:33.408Z,21.58
2017-01-24T03:36:02.145Z,21.59
2017-01-24T03:36:30.229Z,21.64
2017-01-24T03:36:58.327Z,21.59
2017-01-24T03:37:26.320Z,21.61
2017-01-24T03:37:54.235Z,21.58
2017-01-24T03:38:22.220Z,21.56
2017-01-24T03:38:51.836Z,21.59
2017-01-24T03:39:19.915Z,21.58
2017-01-24T03:39:47.987Z,21.61
2017-01-24T03:40:15.929Z,21.61
2017-01-24T03:40:43.980Z,21.56
2017-01-24T03:41:12.744Z,21.56
2017-01-24T03:41:41.592Z,21.58
2017-01-24T03:42:09.464Z,21.54
2017-01-24T03:42:37.404Z,21.53
2017-01-24T03:43:05.484Z,21.61
2017-01-24T03:43:33.559Z,21.53
2017-01-24T03:44:02.468Z,21.59
2017-01-24T03:44:30.538Z,21.59
2017-01-24T03:44:58.961Z,21.61
2017-01-24T03:45:26.855Z,21.54
2017-01-24T03:45:55.704Z,21.62
2017-01-24T03:46:23.661Z,21.59
2017-01-24T03:46:51.701Z,21.62
2017-01-24T03:47:19.648Z,21.58
2017-01-24T03:47:48.484Z,21.62
2017-01-24T03:48:16.368Z,21.61
2017-01-24T03:48:44.459Z,21.59
2017-01-24T03:49:13.359Z,21.62
2017-01-24T03:49:41.439Z,21.61
2017-01-24T03:50:09.422Z,21.65
2017-01-24T03:50:38.100Z,21.53
2017-01-24T03:51:07.740Z,21.59
2017-01-24T03:51:36.554Z,21.53
2017-01-24T03:52:04.494Z,21.54
2017-01-24T03:52:32.491Z,21.68
2017-01-24T03:53:01.247Z,21.61
2017-01-24T03:53:29.133Z,21.53
2017-01-24T03:53:56.941Z,21.53
2017-01-24T03:54:24.982Z,21.61
2017-01-24T03:54:53.075Z,21.54
2017-01-24T03:55:22.719Z,21.67
2017-01-24T03:55:50.738Z,21.58
2017-01-24T03:56:18.779Z,21.58
2017-01-24T03:56:46.845Z,21.58
2017-01-24T03:57:15.726Z,21.53
2017-01-24T03:57:44.597Z,21.65
2017-01-24T03:58:12.663Z,21.68
2017-01-24T03:58:40.612Z,21.61
2017-01-24T03:59:09.185Z,21.58
2017-01-24T03:59:38.019Z,21.59
2017-01-24T04:00:06.139Z,21.56
2017-01-24T04:00:34.897Z,21.54
2017-01-24T04:01:02.842Z,21.54
2017-01-24T04:01:30.969Z,21.56
2017-01-24T04:01:58.771Z,21.56
2017-01-24T04:02:28.325Z,21.56
2017-01-24T04:02:56.407Z,21.49
2017-01-24T04:04:03.429Z,21.53
2017-01-24T04:04:31.409Z,21.5
2017-01-24T04:04:59.484Z,21.47
2017-01-24T04:05:27.460Z,21.52
2017-01-24T04:05:56.348Z,21.58
2017-01-24T04:06:24.431Z,21.44
2017-01-24T04:06:52.408Z,21.5
2017-01-24T04:07:20.479Z,21.46
2017-01-24T04:07:48.475Z,21.58
2017-01-24T04:08:16.569Z,21.44
2017-01-24T04:08:44.608Z,21.49
2017-01-24T04:09:12.717Z,21.43
2017-01-24T04:09:41.579Z,21.43
2017-01-24T04:10:09.570Z,21.49
2017-01-24T04:10:38.329Z,21.47
2017-01-24T04:11:06.200Z,21.49
2017-01-24T04:11:34.193Z,21.44
2017-01-24T04:12:03.812Z,21.42
2017-01-24T04:12:32.671Z,21.38
2017-01-24T04:13:01.566Z,21.46
2017-01-24T04:13:29.665Z,21.43
2017-01-24T04:13:58.508Z,21.42
2017-01-24T04:14:26.592Z,21.37
2017-01-24T04:14:55.353Z,21.49
2017-01-24T04:15:25.108Z,21.4
2017-01-24T04:15:53.983Z,21.46
2017-01-24T04:16:21.825Z,21.35
2017-01-24T04:16:49.906Z,21.42
2017-01-24T04:17:17.907Z,21.35
2017-01-24T04:17:45.984Z,21.31
2017-01-24T04:18:14.831Z,21.4
2017-01-24T04:18:43.688Z,21.28
2017-01-24T04:19:12.538Z,21.31
2017-01-24T04:19:41.352Z,21.29
2017-01-24T04:20:10.009Z,21.42
2017-01-24T04:20:38.866Z,21.38
2017-01-24T04:21:06.839Z,21.37
2017-01-24T04:21:35.673Z,21.34
2017-01-24T04:22:03.708Z,21.34
2017-01-24T04:22:31.694Z,21.34
2017-01-24T04:23:00.449Z,21.32
2017-01-24T04:23:28.399Z,21.35
2017-01-24T04:23:57.945Z,21.38
2017-01-24T04:24:26.790Z,21.35
2017-01-24T04:24:54.685Z,21.38
2017-01-24T04:25:22.575Z,21.34
2017-01-24T04:25:51.315Z,21.37
2017-01-24T04:26:19.355Z,21.31
2017-01-24T04:26:47.212Z,21.34
2017-01-24T04:27:15.271Z,21.29
2017-01-24T04:27:44.882Z,21.28
2017-01-24T04:28:13.776Z,21.29
2017-01-24T04:28:41.916Z,21.34
2017-01-24T04:29:09.895Z,21.37
2017-01-24T04:29:37.981Z,21.32
2017-01-24T04:30:06.068Z,21.32
2017-01-24T04:30:34.804Z,21.31
2017-01-24T04:31:02.844Z,21.31
2017-01-24T04:31:31.646Z,21.38
2017-01-24T04:31:59.640Z,21.37
2017-01-24T04:32:27.696Z,21.35
2017-01-24T04:32:57.328Z,21.43
2017-01-24T04:33:26.200Z,21.38
2017-01-24T04:33:54.236Z,21.43
2017-01-24T04:34:23.792Z,21.4
2017-01-24T04:34:52.655Z,21.47
2017-01-24T04:35:21.562Z,21.49
2017-01-24T04:35:49.693Z,21.49
2017-01-24T04:36:19.322Z,21.49
2017-01-24T04:36:47.412Z,21.49
2017-01-24T04:37:15.223Z,21.5
2017-01-24T04:37:43.200Z,21.46
2017-01-24T04:38:12.626Z,21.4
2017-01-24T04:38:41.381Z,21.5
2017-01-24T04:39:09.432Z,21.47
2017-01-24T04:39:37.430Z,21.4
2017-01-24T04:40:05.468Z,21.38
2017-01-24T04:40:33.415Z,21.35
2017-01-24T04:41:01.465Z,21.37
2017-01-24T04:41:29.519Z,21.32
2017-01-24T04:41:58.290Z,21.34
2017-01-24T04:42:27.054Z,21.34
2017-01-24T04:43:33.380Z,21.38
2017-01-24T04:44:01.276Z,21.32
2017-01-24T04:44:29.255Z,21.35
2017-01-24T04:44:58.082Z,21.27
2017-01-24T04:45:26.242Z,21.29
2017-01-24T04:45:54.235Z,21.29
2017-01-24T04:46:23.080Z,21.35
2017-01-24T04:46:51.061Z,21.25
2017-01-24T04:47:19.065Z,21.21
2017-01-24T04:47:47.936Z,21.21
2017-01-24T04:48:16.063Z,21.21
2017-01-24T04:48:44.170Z,21.21
2017-01-24T04:49:12.946Z,21.19
2017-01-24T04:49:41.710Z,21.24
2017-01-24T04:50:11.349Z,21.32
2017-01-24T04:50:39.401Z,21.22
2017-01-24T04:51:07.489Z,21.22
2017-01-24T04:51:36.152Z,21.25
2017-01-24T04:52:05.009Z,21.25
2017-01-24T04:52:33.907Z,21.27
2017-01-24T04:53:01.917Z,21.21
2017-01-24T04:53:30.664Z,21.24
2017-01-24T04:53:58.752Z,21.27
2017-01-24T04:54:28.381Z,21.29
2017-01-24T04:54:57.220Z,21.27
2017-01-24T04:55:25.316Z,21.17
2017-01-24T04:55:53.411Z,21.16
2017-01-24T04:56:22.091Z,21.14
2017-01-24T04:56:50.001Z,21.22
2017-01-24T04:57:18.070Z,21.27
2017-01-24T04:57:46.047Z,21.19
2017-01-24T04:58:14.811Z,21.17
2017-01-24T04:58:43.474Z,21.25
2017-01-24T04:59:11.602Z,21.27
2017-01-24T04:59:39.668Z,21.19
2017-01-24T05:00:08.438Z,21.22
2017-01-24T05:00:36.549Z,21.24
2017-01-24T05:01:06.171Z,21.27
2017-01-24T05:01:34.893Z,21.22
2017-01-24T05:02:02.789Z,21.27
2017-01-24T05:02:31.546Z,21.14
2017-01-24T05:02:59.585Z,21.21
2017-01-24T05:03:27.655Z,21.29
2017-01-24T05:03:55.625Z,21.21
2017-01-24T05:04:26.040Z,21.19
2017-01-24T05:04:54.017Z,21.31
2017-01-24T05:05:22.852Z,21.25
2017-01-24T05:05:51.848Z,21.14
2017-01-24T05:06:19.796Z,21.17
2017-01-24T05:06:47.664Z,21.17
2017-01-24T05:07:15.628Z,21.32
2017-01-24T05:07:43.736Z,21.17
2017-01-24T05:08:11.863Z,21.22
2017-01-24T05:08:39.840Z,21.17
2017-01-24T05:09:08.696Z,21.19
2017-01-24T05:09:37.281Z,21.27
2017-01-24T05:10:05.362Z,21.22
2017-01-24T05:10:34.274Z,21.27
2017-01-24T05:11:03.154Z,21.27
2017-01-24T05:11:32.032Z,21.27
2017-01-24T05:11:59.997Z,21.22
2017-01-24T05:12:28.850Z,21.28
2017-01-24T05:12:56.931Z,21.22
2017-01-24T05:13:25.573Z,21.28
2017-01-24T05:13:53.663Z,21.27
2017-01-24T05:14:21.743Z,21.25
2017-01-24T05:14:49.856Z,21.28
2017-01-24T05:15:19.436Z,21.22
2017-01-24T05:15:47.561Z,21.25
2017-01-24T05:16:15.576Z,21.16
2017-01-24T05:16:44.442Z,21.17
2017-01-24T05:17:12.509Z,21.24
2017-01-24T05:17:40.551Z,21.14
2017-01-24T05:18:10.180Z,21.22
2017-01-24T05:18:38.924Z,21.19
2017-01-24T05:19:07.682Z,21.16
2017-01-24T05:19:35.746Z,21.19
2017-01-24T05:20:04.558Z,21.19
2017-01-24T05:20:32.500Z,21.19
2017-01-24T05:21:00.471Z,21.22
2017-01-24T05:21:29.342Z,21.17
2017-01-24T05:21:58.981Z,21.1
2017-01-24T05:23:05.311Z,21.13
2017-01-24T05:23:34.081Z,21.09
2017-01-24T05:24:02.060Z,21.07
2017-01-24T05:24:29.921Z,21.1
2017-01-24T05:24:57.862Z,21.1
2017-01-24T05:25:26.713Z,20.98
2017-01-24T05:25:55.557Z,21.06
2017-01-24T05:26:23.628Z,21.07
2017-01-24T05:26:51.628Z,21.03
2017-01-24T05:27:20.515Z,21.04
2017-01-24T05:27:48.623Z,20.99
2017-01-24T05:28:16.565Z,20.99
2017-01-24T05:28:46.217Z,21.03
2017-01-24T05:29:14.213Z,21.04
2017-01-24T05:29:42.965Z,20.99
2017-01-24T05:30:11.710Z,20.98
2017-01-24T05:30:39.948Z,20.97
2017-01-24T05:31:07.922Z,21.01
2017-01-24T05:31:36.694Z,21.04
2017-01-24T05:32:05.598Z,21.07
2017-01-24T05:32:33.422Z,21.07
2017-01-24T05:33:02.261Z,21.03
2017-01-24T05:33:31.124Z,21.06
2017-01-24T05:33:59.016Z,21.1
2017-01-24T05:34:28.531Z,21.06
2017-01-24T05:34:56.353Z,21.09
2017-01-24T05:35:24.267Z,21.12
2017-01-24T05:35:52.269Z,21.14
2017-01-24T05:36:20.362Z,21.07
2017-01-24T05:36:48.434Z,21.12
2017-01-24T05:37:16.499Z,21.13
2017-01-24T05:37:45.360Z,21.14
2017-01-24T05:38:13.339Z,21.07
2017-01-24T05:38:42.070Z,21.07
2017-01-24T05:39:10.026Z,21.1
2017-01-24T05:39:38.876Z,21.06
2017-01-24T05:40:07.531Z,21.06
2017-01-24T05:40:35.591Z,20.99
2017-01-24T05:41:03.542Z,20.98
2017-01-24T05:41:31.624Z,20.91
2017-01-24T05:41:59.517Z,20.95
2017-01-24T05:42:28.426Z,20.92
2017-01-24T05:42:57.469Z,20.91
2017-01-24T05:43:25.347Z,20.87
2017-01-24T05:43:53.358Z,20.85
2017-01-24T05:44:23.766Z,20.87
2017-01-24T05:44:52.412Z,20.82
2017-01-24T05:45:20.447Z,20.89
2017-01-24T05:45:49.438Z,20.88
2017-01-24T05:46:18.266Z,20.92
2017-01-24T05:46:46.313Z,20.91
2017-01-24T05:47:14.251Z,20.82
2017-01-24T05:47:42.189Z,20.85
2017-01-24T05:48:10.202Z,20.91
2017-01-24T05:48:38.982Z,20.84
2017-01-24T05:49:06.970Z,20.91
2017-01-24T05:49:35.054Z,20.8
2017-01-24T05:50:02.909Z,20.82
2017-01-24T05:50:31.793Z,20.82
2017-01-24T05:51:00.574Z,20.79
2017-01-24T05:51:28.543Z,20.82
2017-01-24T05:51:56.514Z,20.82
2017-01-24T05:52:24.600Z,20.79
2017-01-24T05:52:52.454Z,20.82
2017-01-24T05:53:20.360Z,20.8
2017-01-24T05:53:49.129Z,20.79
2017-01-24T05:54:17.155Z,20.82
2017-01-24T05:54:46.053Z,20.87
2017-01-24T05:55:13.932Z,20.84
2017-01-24T05:55:41.841Z,20.84
2017-01-24T05:56:10.618Z,20.84
2017-01-24T05:56:39.468Z,20.91
2017-01-24T05:57:07.335Z,20.87
2017-01-24T05:57:35.309Z,20.85
2017-01-24T05:58:03.271Z,20.85
2017-01-24T05:58:31.236Z,20.91
2017-01-24T05:58:59.306Z,20.82
2017-01-24T05:59:28.127Z,20.88
2017-01-24T05:59:56.178Z,20.91
2017-01-24T06:00:25.032Z,20.8
2017-01-24T06:00:53.959Z,20.85
2017-01-24T06:01:21.860Z,20.8
2017-01-24T06:02:28.004Z,20.79
2017-01-24T06:02:56.774Z,20.84
2017-01-24T06:03:25.629Z,20.69
2017-01-24T06:03:54.457Z,20.82
2017-01-24T06:04:22.465Z,20.79
2017-01-24T06:04:50.381Z,20.72
2017-01-24T06:05:19.136Z,20.8
2017-01-24T06:05:47.224Z,20.72
2017-01-24T06:06:15.415Z,20.77
2017-01-24T06:06:44.303Z,20.74
2017-01-24T06:07:12.430Z,20.72
2017-01-24T06:07:41.126Z,20.69
2017-01-24T06:08:09.110Z,20.73
2017-01-24T06:08:37.108Z,20.69
2017-01-24T06:09:05.178Z,20.88
2017-01-24T06:09:33.925Z,20.73
2017-01-24T06:10:02.007Z,20.72
2017-01-24T06:10:29.882Z,20.73
2017-01-24T06:10:58.740Z,20.69
2017-01-24T06:11:26.777Z,20.7
2017-01-24T06:11:54.718Z,20.69
2017-01-24T06:12:23.559Z,20.72
2017-01-24T06:12:52.444Z,20.69
2017-01-24T06:13:20.214Z,20.73
2017-01-24T06:13:49.139Z,20.66